Bo Liceo, Puerto Rico
Current Conditions -  °F | °C
As of 8:50 PM on Thursday 23 Oct 2014 (Local Time) from TJBQ Reporting Station
Broken Clouds Broken Clouds  
Wind Chill: 77°   Ceiling: 4300
Heat Index: 78°   Visibility: 10mi
Dew Point: 75°   Wind: 0mph
Humidity: 94%   Direction: NA
Pressure: 29.96"   Gusts: NA
Location:  18.2038°N, 67.1453°W
Report Text: TJBQ 240050Z 00000KT 10SM SCT020 SCT030 BKN043 25/24 A2996 RMK TWR CLSD UNTIL 1100Z
Loading
Personal Weather Stations






























Interactive Weather Map
Tropical Storm Tracking
New forecast layout! Learn more

10-Day Weather Forecast

Advertisements
Track Severe Weather on mobile